sensor_id;sensor_type;location;lat;lon;timestamp;temperature;humidity
41882;DHT22;27562;47.524;12.404;2022-07-23T00:02:16;19.20;99.90
41882;DHT22;27562;47.524;12.404;2022-07-23T00:04:42;19.30;99.90
41882;DHT22;27562;47.524;12.404;2022-07-23T00:07:07;19.40;99.90
41882;DHT22;27562;47.524;12.404;2022-07-23T00:09:33;19.40;99.90
41882;DHT22;27562;47.524;12.404;2022-07-23T00:11:58;19.50;99.90
41882;DHT22;27562;47.524;12.404;2022-07-23T00:14:24;19.50;99.90
41882;DHT22;27562;47.524;12.404;2022-07-23T00:16:49;19.50;99.90
41882;DHT22;27562;47.524;12.404;2022-07-23T00:19:15;19.40;99.90
41882;DHT22;27562;47.524;12.404;2022-07-23T00:21:41;19.40;99.90
41882;DHT22;27562;47.524;12.404;2022-07-23T00:24:06;19.30;99.90
41882;DHT22;27562;47.524;12.404;2022-07-23T00:26:32;19.30;99.90
41882;DHT22;27562;47.524;12.404;2022-07-23T00:28:57;19.20;99.90
41882;DHT22;27562;47.524;12.404;2022-07-23T00:31:23;19.10;99.90
41882;DHT22;27562;47.524;12.404;2022-07-23T00:33:48;19.10;99.90
41882;DHT22;27562;47.524;12.404;2022-07-23T00:36:14;19.10;99.90
41882;DHT22;27562;47.524;12.404;2022-07-23T00:38:39;19.00;99.90
41882;DHT22;27562;47.524;12.404;2022-07-23T00:41:05;19.00;99.90
41882;DHT22;27562;47.524;12.404;2022-07-23T00:43:31;19.00;99.90
41882;DHT22;27562;47.524;12.404;2022-07-23T00:45:56;19.00;99.90
41882;DHT22;27562;47.524;12.404;2022-07-23T00:48:22;19.00;99.90
41882;DHT22;27562;47.524;12.404;2022-07-23T00:50:47;18.90;99.90
41882;DHT22;27562;47.524;12.404;2022-07-23T00:53:13;18.80;99.90
41882;DHT22;27562;47.524;12.404;2022-07-23T00:55:38;18.80;99.90
41882;DHT22;27562;47.524;12.404;2022-07-23T00:58:04;18.80;99.90
41882;DHT22;27562;47.524;12.404;2022-07-23T01:00:30;18.80;99.90
41882;DHT22;27562;47.524;12.404;2022-07-23T01:02:55;18.90;99.90
41882;DHT22;27562;47.524;12.404;2022-07-23T01:05:21;18.90;99.90
41882;DHT22;27562;47.524;12.404;2022-07-23T01:07:50;18.90;99.90
41882;DHT22;27562;47.524;12.404;2022-07-23T01:10:16;19.00;99.90
41882;DHT22;27562;47.524;12.404;2022-07-23T01:13:00;19.00;99.90
41882;DHT22;27562;47.524;12.404;2022-07-23T01:15:26;19.10;99.90
41882;DHT22;27562;47.524;12.404;2022-07-23T01:17:52;19.00;99.90
41882;DHT22;27562;47.524;12.404;2022-07-23T01:20:17;19.00;99.90
41882;DHT22;27562;47.524;12.404;2022-07-23T01:22:43;19.00;99.90
41882;DHT22;27562;47.524;12.404;2022-07-23T01:25:09;19.10;99.90
41882;DHT22;27562;47.524;12.404;2022-07-23T01:27:35;19.00;99.90
41882;DHT22;27562;47.524;12.404;2022-07-23T01:30:00;18.90;99.90
41882;DHT22;27562;47.524;12.404;2022-07-23T01:32:26;18.80;99.90
41882;DHT22;27562;47.524;12.404;2022-07-23T01:34:52;18.60;99.90
41882;DHT22;27562;47.524;12.404;2022-07-23T01:37:17;18.50;99.90
41882;DHT22;27562;47.524;12.404;2022-07-23T01:39:43;18.40;99.90
41882;DHT22;27562;47.524;12.404;2022-07-23T01:42:08;18.40;99.90
41882;DHT22;27562;47.524;12.404;2022-07-23T01:44:34;18.40;99.90
41882;DHT22;27562;47.524;12.404;2022-07-23T01:46:59;18.50;99.90
41882;DHT22;27562;47.524;12.404;2022-07-23T01:49:25;18.50;99.90
41882;DHT22;27562;47.524;12.404;2022-07-23T01:51:50;18.60;99.90
41882;DHT22;27562;47.524;12.404;2022-07-23T01:54:31;18.60;99.90
41882;DHT22;27562;47.524;12.404;2022-07-23T01:56:57;18.50;99.90
41882;DHT22;27562;47.524;12.404;2022-07-23T01:59:23;18.50;99.90
41882;DHT22;27562;47.524;12.404;2022-07-23T02:01:49;18.50;99.90
41882;DHT22;27562;47.524;12.404;2022-07-23T02:04:16;18.50;99.90
41882;DHT22;27562;47.524;12.404;2022-07-23T02:06:42;18.40;99.90
41882;DHT22;27562;47.524;12.404;2022-07-23T02:09:07;18.50;99.90
41882;DHT22;27562;47.524;12.404;2022-07-23T02:11:33;18.50;99.90
41882;DHT22;27562;47.524;12.404;2022-07-23T02:13:59;18.50;99.90
41882;DHT22;27562;47.524;12.404;2022-07-23T02:16:24;18.50;99.90
41882;DHT22;27562;47.524;12.404;2022-07-23T02:18:50;18.60;99.90
41882;DHT22;27562;47.524;12.404;2022-07-23T02:21:15;18.60;99.90
41882;DHT22;27562;47.524;12.404;2022-07-23T02:23:41;18.50;99.90
41882;DHT22;27562;47.524;12.404;2022-07-23T02:26:06;18.50;99.90
41882;DHT22;27562;47.524;12.404;2022-07-23T02:28:32;18.50;99.90
41882;DHT22;27562;47.524;12.404;2022-07-23T02:30:57;18.50;99.90
41882;DHT22;27562;47.524;12.404;2022-07-23T02:33:23;18.50;99.90
41882;DHT22;27562;47.524;12.404;2022-07-23T02:35:49;18.40;99.90
41882;DHT22;27562;47.524;12.404;2022-07-23T02:38:14;18.30;99.90
41882;DHT22;27562;47.524;12.404;2022-07-23T02:40:40;18.20;99.90
41882;DHT22;27562;47.524;12.404;2022-07-23T02:43:05;18.00;99.90
41882;DHT22;27562;47.524;12.404;2022-07-23T02:45:31;17.90;99.90
41882;DHT22;27562;47.524;12.404;2022-07-23T02:47:56;17.90;99.90
41882;DHT22;27562;47.524;12.404;2022-07-23T02:50:22;17.90;99.90
41882;DHT22;27562;47.524;12.404;2022-07-23T02:52:48;17.90;99.90
41882;DHT22;27562;47.524;12.404;2022-07-23T02:55:13;17.90;99.90
41882;DHT22;27562;47.524;12.404;2022-07-23T02:57:39;18.00;99.90
41882;DHT22;27562;47.524;12.404;2022-07-23T03:00:05;18.10;99.90
41882;DHT22;27562;47.524;12.404;2022-07-23T03:02:31;18.10;99.90
41882;DHT22;27562;47.524;12.404;2022-07-23T03:04:56;18.00;99.90
41882;DHT22;27562;47.524;12.404;2022-07-23T03:07:22;18.00;99.90
41882;DHT22;27562;47.524;12.404;2022-07-23T03:09:47;18.10;99.90
41882;DHT22;27562;47.524;12.404;2022-07-23T03:12:13;18.00;99.90
41882;DHT22;27562;47.524;12.404;2022-07-23T03:14:39;18.00;99.90
41882;DHT22;27562;47.524;12.404;2022-07-23T03:17:04;18.10;99.90
41882;DHT22;27562;47.524;12.404;2022-07-23T03:19:30;18.10;99.90
41882;DHT22;27562;47.524;12.404;2022-07-23T03:21:55;18.10;99.90
41882;DHT22;27562;47.524;12.404;2022-07-23T03:24:21;18.20;99.90
41882;DHT22;27562;47.524;12.404;2022-07-23T03:26:49;18.20;99.90
41882;DHT22;27562;47.524;12.404;2022-07-23T03:29:14;18.20;99.90
41882;DHT22;27562;47.524;12.404;2022-07-23T03:31:40;18.20;99.90
41882;DHT22;27562;47.524;12.404;2022-07-23T03:34:05;18.20;99.90
41882;DHT22;27562;47.524;12.404;2022-07-23T03:36:31;18.10;99.90
41882;DHT22;27562;47.524;12.404;2022-07-23T03:38:56;18.00;99.90
41882;DHT22;27562;47.524;12.404;2022-07-23T03:41:22;17.90;99.90
41882;DHT22;27562;47.524;12.404;2022-07-23T03:43:47;17.90;99.90
41882;DHT22;27562;47.524;12.404;2022-07-23T03:46:13;17.90;99.90
41882;DHT22;27562;47.524;12.404;2022-07-23T03:48:38;17.80;99.90
41882;DHT22;27562;47.524;12.404;2022-07-23T03:51:04;17.80;99.90
41882;DHT22;27562;47.524;12.404;2022-07-23T03:53:29;17.80;99.90
41882;DHT22;27562;47.524;12.404;2022-07-23T03:55:55;17.80;99.90
41882;DHT22;27562;47.524;12.404;2022-07-23T03:58:20;17.80;99.90
41882;DHT22;27562;47.524;12.404;2022-07-23T04:00:46;17.90;99.90
41882;DHT22;27562;47.524;12.404;2022-07-23T04:03:11;17.80;99.90
41882;DHT22;27562;47.524;12.404;2022-07-23T04:05:37;17.80;99.90
41882;DHT22;27562;47.524;12.404;2022-07-23T04:08:03;17.60;99.90
41882;DHT22;27562;47.524;12.404;2022-07-23T04:10:28;17.60;99.90
41882;DHT22;27562;47.524;12.404;2022-07-23T04:12:54;17.50;99.90
41882;DHT22;27562;47.524;12.404;2022-07-23T04:15:19;17.50;99.90
41882;DHT22;27562;47.524;12.404;2022-07-23T04:17:45;17.50;99.90
41882;DHT22;27562;47.524;12.404;2022-07-23T04:20:12;17.60;99.90
41882;DHT22;27562;47.524;12.404;2022-07-23T04:22:37;17.60;99.90
41882;DHT22;27562;47.524;12.404;2022-07-23T04:25:03;17.70;99.90
41882;DHT22;27562;47.524;12.404;2022-07-23T04:27:29;17.80;99.90
41882;DHT22;27562;47.524;12.404;2022-07-23T04:29:54;17.80;99.90
41882;DHT22;27562;47.524;12.404;2022-07-23T04:32:20;17.90;99.90
41882;DHT22;27562;47.524;12.404;2022-07-23T04:34:45;17.80;99.90
41882;DHT22;27562;47.524;12.404;2022-07-23T04:37:11;17.80;99.90
41882;DHT22;27562;47.524;12.404;2022-07-23T04:39:36;17.80;99.90
41882;DHT22;27562;47.524;12.404;2022-07-23T04:42:02;17.80;99.90
41882;DHT22;27562;47.524;12.404;2022-07-23T04:44:28;17.90;99.90
41882;DHT22;27562;47.524;12.404;2022-07-23T04:46:53;17.90;99.90
41882;DHT22;27562;47.524;12.404;2022-07-23T04:49:19;17.90;99.90
41882;DHT22;27562;47.524;12.404;2022-07-23T04:51:44;17.90;99.90
41882;DHT22;27562;47.524;12.404;2022-07-23T04:54:10;18.00;99.90
41882;DHT22;27562;47.524;12.404;2022-07-23T04:56:35;17.90;99.90
41882;DHT22;27562;47.524;12.404;2022-07-23T04:59:01;17.90;99.90
41882;DHT22;27562;47.524;12.404;2022-07-23T05:01:26;17.80;99.90
41882;DHT22;27562;47.524;12.404;2022-07-23T05:03:52;17.80;99.90
41882;DHT22;27562;47.524;12.404;2022-07-23T05:06:17;17.70;99.90
41882;DHT22;27562;47.524;12.404;2022-07-23T05:08:43;17.70;99.90
41882;DHT22;27562;47.524;12.404;2022-07-23T05:11:08;17.70;99.90
41882;DHT22;27562;47.524;12.404;2022-07-23T05:13:34;17.70;99.90
41882;DHT22;27562;47.524;12.404;2022-07-23T05:15:59;17.60;99.90
41882;DHT22;27562;47.524;12.404;2022-07-23T05:18:25;17.60;99.90
41882;DHT22;27562;47.524;12.404;2022-07-23T05:20:50;17.60;99.90
41882;DHT22;27562;47.524;12.404;2022-07-23T05:23:16;17.50;99.90
41882;DHT22;27562;47.524;12.404;2022-07-23T05:25:41;17.50;99.90
41882;DHT22;27562;47.524;12.404;2022-07-23T05:28:07;17.50;99.90
41882;DHT22;27562;47.524;12.404;2022-07-23T05:30:33;17.50;99.90
41882;DHT22;27562;47.524;12.404;2022-07-23T05:32:58;17.50;99.90
41882;DHT22;27562;47.524;12.404;2022-07-23T05:35:24;17.60;99.90
41882;DHT22;27562;47.524;12.404;2022-07-23T05:37:49;17.60;99.90
41882;DHT22;27562;47.524;12.404;2022-07-23T05:40:18;17.60;99.90
41882;DHT22;27562;47.524;12.404;2022-07-23T05:42:43;17.60;99.90
41882;DHT22;27562;47.524;12.404;2022-07-23T05:45:09;17.60;99.90
41882;DHT22;27562;47.524;12.404;2022-07-23T05:47:41;17.70;99.90
41882;DHT22;27562;47.524;12.404;2022-07-23T05:50:06;17.80;99.90
41882;DHT22;27562;47.524;12.404;2022-07-23T05:52:32;17.80;99.90
41882;DHT22;27562;47.524;12.404;2022-07-23T05:54:57;17.80;99.90
41882;DHT22;27562;47.524;12.404;2022-07-23T05:57:23;17.80;99.90
41882;DHT22;27562;47.524;12.404;2022-07-23T05:59:48;17.90;99.90
41882;DHT22;27562;47.524;12.404;2022-07-23T06:02:14;17.90;99.90
41882;DHT22;27562;47.524;12.404;2022-07-23T06:04:39;18.00;99.90
41882;DHT22;27562;47.524;12.404;2022-07-23T06:07:05;17.90;99.90
41882;DHT22;27562;47.524;12.404;2022-07-23T06:09:30;17.90;99.90
41882;DHT22;27562;47.524;12.404;2022-07-23T06:11:56;17.90;99.90
41882;DHT22;27562;47.524;12.404;2022-07-23T06:14:21;17.80;99.90
41882;DHT22;27562;47.524;12.404;2022-07-23T06:16:47;17.80;99.90
41882;DHT22;27562;47.524;12.404;2022-07-23T06:19:12;17.80;99.90
41882;DHT22;27562;47.524;12.404;2022-07-23T06:21:38;17.80;99.90
41882;DHT22;27562;47.524;12.404;2022-07-23T06:24:03;17.80;99.90
41882;DHT22;27562;47.524;12.404;2022-07-23T06:26:29;17.70;99.90
41882;DHT22;27562;47.524;12.404;2022-07-23T06:28:55;17.70;99.90
41882;DHT22;27562;47.524;12.404;2022-07-23T06:31:20;17.70;99.90
41882;DHT22;27562;47.524;12.404;2022-07-23T06:33:46;17.70;99.90
41882;DHT22;27562;47.524;12.404;2022-07-23T06:36:11;17.80;99.90
41882;DHT22;27562;47.524;12.404;2022-07-23T06:38:36;17.80;99.90
41882;DHT22;27562;47.524;12.404;2022-07-23T06:41:02;17.80;99.90
41882;DHT22;27562;47.524;12.404;2022-07-23T06:43:29;17.90;99.90
41882;DHT22;27562;47.524;12.404;2022-07-23T06:45:55;17.90;99.90
41882;DHT22;27562;47.524;12.404;2022-07-23T06:48:20;18.00;99.90
41882;DHT22;27562;47.524;12.404;2022-07-23T06:50:47;18.00;99.90
41882;DHT22;27562;47.524;12.404;2022-07-23T06:53:13;18.00;99.90
41882;DHT22;27562;47.524;12.404;2022-07-23T06:55:38;18.00;99.90
41882;DHT22;27562;47.524;12.404;2022-07-23T06:58:05;18.10;99.90
41882;DHT22;27562;47.524;12.404;2022-07-23T07:00:31;18.00;99.90
41882;DHT22;27562;47.524;12.404;2022-07-23T07:02:57;17.90;99.90
41882;DHT22;27562;47.524;12.404;2022-07-23T07:05:23;17.90;99.90
41882;DHT22;27562;47.524;12.404;2022-07-23T07:07:50;17.80;99.90
41882;DHT22;27562;47.524;12.404;2022-07-23T07:10:16;17.80;99.90
41882;DHT22;27562;47.524;12.404;2022-07-23T07:12:43;17.80;99.90
41882;DHT22;27562;47.524;12.404;2022-07-23T07:15:08;17.90;99.90
41882;DHT22;27562;47.524;12.404;2022-07-23T07:17:34;17.90;99.90
41882;DHT22;27562;47.524;12.404;2022-07-23T07:19:59;18.00;99.90
41882;DHT22;27562;47.524;12.404;2022-07-23T07:22:25;18.00;99.90
41882;DHT22;27562;47.524;12.404;2022-07-23T07:24:50;18.00;99.90
41882;DHT22;27562;47.524;12.404;2022-07-23T07:27:16;18.00;99.90
41882;DHT22;27562;47.524;12.404;2022-07-23T07:29:41;18.10;99.90
41882;DHT22;27562;47.524;12.404;2022-07-23T07:32:07;18.10;99.90
41882;DHT22;27562;47.524;12.404;2022-07-23T07:34:32;18.20;99.90
41882;DHT22;27562;47.524;12.404;2022-07-23T07:36:58;18.20;99.90
41882;DHT22;27562;47.524;12.404;2022-07-23T07:39:23;18.20;99.90
41882;DHT22;27562;47.524;12.404;2022-07-23T07:41:49;18.20;99.90
41882;DHT22;27562;47.524;12.404;2022-07-23T07:44:15;18.20;99.90
41882;DHT22;27562;47.524;12.404;2022-07-23T07:46:40;18.20;99.90
41882;DHT22;27562;47.524;12.404;2022-07-23T07:49:06;18.20;99.90
41882;DHT22;27562;47.524;12.404;2022-07-23T07:51:31;18.20;99.90
41882;DHT22;27562;47.524;12.404;2022-07-23T07:53:58;18.30;99.90
41882;DHT22;27562;47.524;12.404;2022-07-23T07:56:23;18.30;99.90
41882;DHT22;27562;47.524;12.404;2022-07-23T07:58:49;18.30;99.90
41882;DHT22;27562;47.524;12.404;2022-07-23T08:01:14;18.40;99.90
41882;DHT22;27562;47.524;12.404;2022-07-23T08:03:40;18.50;99.90
41882;DHT22;27562;47.524;12.404;2022-07-23T08:06:05;18.50;99.90
41882;DHT22;27562;47.524;12.404;2022-07-23T08:08:31;18.60;99.90
41882;DHT22;27562;47.524;12.404;2022-07-23T08:10:56;18.60;99.90
41882;DHT22;27562;47.524;12.404;2022-07-23T08:13:22;18.70;99.90
41882;DHT22;27562;47.524;12.404;2022-07-23T08:15:48;18.80;99.90
41882;DHT22;27562;47.524;12.404;2022-07-23T08:18:13;18.90;99.90
41882;DHT22;27562;47.524;12.404;2022-07-23T08:20:39;18.90;99.90
41882;DHT22;27562;47.524;12.404;2022-07-23T08:23:05;18.90;99.90
41882;DHT22;27562;47.524;12.404;2022-07-23T08:25:32;19.00;99.90
41882;DHT22;27562;47.524;12.404;2022-07-23T08:27:58;19.10;99.90
41882;DHT22;27562;47.524;12.404;2022-07-23T08:30:24;19.20;99.90
41882;DHT22;27562;47.524;12.404;2022-07-23T08:33:00;19.20;99.90
41882;DHT22;27562;47.524;12.404;2022-07-23T08:35:31;19.30;99.90
41882;DHT22;27562;47.524;12.404;2022-07-23T08:37:57;19.30;99.90
41882;DHT22;27562;47.524;12.404;2022-07-23T08:40:25;19.30;99.90
41882;DHT22;27562;47.524;12.404;2022-07-23T08:42:51;19.30;99.90
41882;DHT22;27562;47.524;12.404;2022-07-23T08:45:17;19.30;99.90
41882;DHT22;27562;47.524;12.404;2022-07-23T08:47:44;19.30;99.90
41882;DHT22;27562;47.524;12.404;2022-07-23T08:50:09;19.30;99.90
41882;DHT22;27562;47.524;12.404;2022-07-23T08:52:35;19.30;99.90
41882;DHT22;27562;47.524;12.404;2022-07-23T08:55:01;19.40;99.90
41882;DHT22;27562;47.524;12.404;2022-07-23T08:57:27;19.40;99.90
41882;DHT22;27562;47.524;12.404;2022-07-23T08:59:52;19.50;99.90
41882;DHT22;27562;47.524;12.404;2022-07-23T09:02:18;19.60;99.90
41882;DHT22;27562;47.524;12.404;2022-07-23T09:04:43;19.70;99.90
41882;DHT22;27562;47.524;12.404;2022-07-23T09:07:09;19.80;99.90
41882;DHT22;27562;47.524;12.404;2022-07-23T09:09:34;19.90;99.90
41882;DHT22;27562;47.524;12.404;2022-07-23T09:12:04;20.00;99.90
41882;DHT22;27562;47.524;12.404;2022-07-23T09:14:43;20.20;99.90
41882;DHT22;27562;47.524;12.404;2022-07-23T09:17:09;20.40;99.90
41882;DHT22;27562;47.524;12.404;2022-07-23T09:19:35;20.60;99.90
41882;DHT22;27562;47.524;12.404;2022-07-23T09:22:22;20.80;99.90
41882;DHT22;27562;47.524;12.404;2022-07-23T09:25:09;21.00;99.90
41882;DHT22;27562;47.524;12.404;2022-07-23T09:30:12;21.60;99.90
41882;DHT22;27562;47.524;12.404;2022-07-23T09:32:41;21.90;99.90
41882;DHT22;27562;47.524;12.404;2022-07-23T09:35:07;22.10;99.90
41882;DHT22;27562;47.524;12.404;2022-07-23T09:37:33;22.20;99.90
41882;DHT22;27562;47.524;12.404;2022-07-23T09:40:06;22.20;99.90
41882;DHT22;27562;47.524;12.404;2022-07-23T09:42:32;22.20;99.90
41882;DHT22;27562;47.524;12.404;2022-07-23T09:44:57;22.20;99.90
41882;DHT22;27562;47.524;12.404;2022-07-23T09:47:25;22.30;99.90
41882;DHT22;27562;47.524;12.404;2022-07-23T09:52:43;22.40;99.90
41882;DHT22;27562;47.524;12.404;2022-07-23T09:55:09;22.60;99.90
41882;DHT22;27562;47.524;12.404;2022-07-23T09:57:35;22.80;99.90
41882;DHT22;27562;47.524;12.404;2022-07-23T10:00:01;23.00;99.90
41882;DHT22;27562;47.524;12.404;2022-07-23T10:02:28;23.20;99.90
41882;DHT22;27562;47.524;12.404;2022-07-23T10:04:55;23.30;99.90
41882;DHT22;27562;47.524;12.404;2022-07-23T10:07:23;23.30;99.90
41882;DHT22;27562;47.524;12.404;2022-07-23T10:09:51;23.40;99.90
41882;DHT22;27562;47.524;12.404;2022-07-23T10:12:18;23.40;99.90
41882;DHT22;27562;47.524;12.404;2022-07-23T10:15:03;23.40;99.90
41882;DHT22;27562;47.524;12.404;2022-07-23T10:17:31;23.40;99.90
41882;DHT22;27562;47.524;12.404;2022-07-23T10:19:57;23.40;99.90
41882;DHT22;27562;47.524;12.404;2022-07-23T10:22:23;23.60;99.90
41882;DHT22;27562;47.524;12.404;2022-07-23T10:24:56;23.80;99.90
41882;DHT22;27562;47.524;12.404;2022-07-23T10:38:25;24.80;99.00
41882;DHT22;27562;47.524;12.404;2022-07-23T10:40:58;24.70;98.60
41882;DHT22;27562;47.524;12.404;2022-07-23T10:43:24;24.60;98.60
41882;DHT22;27562;47.524;12.404;2022-07-23T10:45:49;24.60;98.30
41882;DHT22;27562;47.524;12.404;2022-07-23T10:48:22;24.50;98.30
41882;DHT22;27562;47.524;12.404;2022-07-23T10:59:02;25.00;98.60
41882;DHT22;27562;47.524;12.404;2022-07-23T11:01:35;25.30;99.00
41882;DHT22;27562;47.524;12.404;2022-07-23T11:04:01;25.50;98.40
41882;DHT22;27562;47.524;12.404;2022-07-23T11:17:23;26.00;93.50
41882;DHT22;27562;47.524;12.404;2022-07-23T11:22:36;26.20;91.90
41882;DHT22;27562;47.524;12.404;2022-07-23T11:25:02;26.20;92.10
41882;DHT22;27562;47.524;12.404;2022-07-23T11:27:41;26.20;92.90
41882;DHT22;27562;47.524;12.404;2022-07-23T11:30:08;26.20;91.40
41882;DHT22;27562;47.524;12.404;2022-07-23T11:32:35;26.40;82.00
41882;DHT22;27562;47.524;12.404;2022-07-23T11:35:03;26.40;84.40
41882;DHT22;27562;47.524;12.404;2022-07-23T11:37:43;26.50;87.50
41882;DHT22;27562;47.524;12.404;2022-07-23T11:40:10;26.50;88.60
41882;DHT22;27562;47.524;12.404;2022-07-23T11:42:37;26.60;85.20
41882;DHT22;27562;47.524;12.404;2022-07-23T11:45:04;26.60;85.90
41882;DHT22;27562;47.524;12.404;2022-07-23T11:47:29;26.60;85.40
41882;DHT22;27562;47.524;12.404;2022-07-23T11:49:55;26.50;82.90
41882;DHT22;27562;47.524;12.404;2022-07-23T11:52:21;26.60;85.50
41882;DHT22;27562;47.524;12.404;2022-07-23T11:54:51;26.90;83.20
41882;DHT22;27562;47.524;12.404;2022-07-23T11:57:17;27.10;83.60
41882;DHT22;27562;47.524;12.404;2022-07-23T11:59:43;27.20;84.40
41882;DHT22;27562;47.524;12.404;2022-07-23T12:02:10;27.30;80.20
41882;DHT22;27562;47.524;12.404;2022-07-23T12:04:44;27.50;80.30
41882;DHT22;27562;47.524;12.404;2022-07-23T12:09:54;27.80;80.30
41882;DHT22;27562;47.524;12.404;2022-07-23T12:12:20;28.10;76.50
41882;DHT22;27562;47.524;12.404;2022-07-23T12:14:56;28.20;72.80
41882;DHT22;27562;47.524;12.404;2022-07-23T12:17:27;28.30;74.80
41882;DHT22;27562;47.524;12.404;2022-07-23T12:19:53;28.40;73.10
41882;DHT22;27562;47.524;12.404;2022-07-23T12:22:19;28.50;68.40
41882;DHT22;27562;47.524;12.404;2022-07-23T12:27:22;28.70;68.40
41882;DHT22;27562;47.524;12.404;2022-07-23T12:29:47;28.70;70.10
41882;DHT22;27562;47.524;12.404;2022-07-23T12:32:26;28.70;68.90
41882;DHT22;27562;47.524;12.404;2022-07-23T12:35:05;28.70;70.40
41882;DHT22;27562;47.524;12.404;2022-07-23T12:37:35;28.70;69.80
41882;DHT22;27562;47.524;12.404;2022-07-23T12:42:46;28.30;70.20
41882;DHT22;27562;47.524;12.404;2022-07-23T12:45:12;28.20;73.30
41882;DHT22;27562;47.524;12.404;2022-07-23T12:50:43;28.10;74.30
41882;DHT22;27562;47.524;12.404;2022-07-23T12:53:17;28.00;75.90
41882;DHT22;27562;47.524;12.404;2022-07-23T12:55:43;28.00;74.90
41882;DHT22;27562;47.524;12.404;2022-07-23T13:00:49;27.70;73.50
41882;DHT22;27562;47.524;12.404;2022-07-23T13:05:53;27.70;72.50
41882;DHT22;27562;47.524;12.404;2022-07-23T13:08:19;27.80;71.30
41882;DHT22;27562;47.524;12.404;2022-07-23T13:10:46;27.90;68.30
41882;DHT22;27562;47.524;12.404;2022-07-23T13:13:14;27.90;71.90
41882;DHT22;27562;47.524;12.404;2022-07-23T13:15:39;27.80;70.10
41882;DHT22;27562;47.524;12.404;2022-07-23T13:18:05;27.70;70.30
41882;DHT22;27562;47.524;12.404;2022-07-23T13:20:31;27.50;69.10
41882;DHT22;27562;47.524;12.404;2022-07-23T13:22:59;27.30;68.30
41882;DHT22;27562;47.524;12.404;2022-07-23T13:25:26;27.20;67.60
41882;DHT22;27562;47.524;12.404;2022-07-23T13:27:52;27.20;69.30
41882;DHT22;27562;47.524;12.404;2022-07-23T13:30:17;27.40;70.10
41882;DHT22;27562;47.524;12.404;2022-07-23T13:32:43;27.50;67.40
41882;DHT22;27562;47.524;12.404;2022-07-23T13:35:09;27.40;69.10
41882;DHT22;27562;47.524;12.404;2022-07-23T13:37:35;27.40;68.00
41882;DHT22;27562;47.524;12.404;2022-07-23T13:40:01;27.40;67.50
41882;DHT22;27562;47.524;12.404;2022-07-23T13:42:26;27.30;67.00
41882;DHT22;27562;47.524;12.404;2022-07-23T13:44:53;27.40;69.20
41882;DHT22;27562;47.524;12.404;2022-07-23T13:47:18;27.50;71.30
41882;DHT22;27562;47.524;12.404;2022-07-23T13:49:44;27.50;68.50
41882;DHT22;27562;47.524;12.404;2022-07-23T13:52:09;27.40;67.40
41882;DHT22;27562;47.524;12.404;2022-07-23T13:54:35;27.40;69.90
41882;DHT22;27562;47.524;12.404;2022-07-23T13:57:01;27.50;70.10
41882;DHT22;27562;47.524;12.404;2022-07-23T13:59:26;27.60;69.90
41882;DHT22;27562;47.524;12.404;2022-07-23T14:01:52;27.70;69.10
41882;DHT22;27562;47.524;12.404;2022-07-23T14:04:18;27.80;69.50
41882;DHT22;27562;47.524;12.404;2022-07-23T14:06:45;27.70;70.20
41882;DHT22;27562;47.524;12.404;2022-07-23T14:09:11;27.50;67.70
41882;DHT22;27562;47.524;12.404;2022-07-23T14:11:37;27.30;68.60
41882;DHT22;27562;47.524;12.404;2022-07-23T14:14:04;27.30;69.50
41882;DHT22;27562;47.524;12.404;2022-07-23T14:16:30;27.30;68.20
41882;DHT22;27562;47.524;12.404;2022-07-23T14:18:55;27.40;70.60
41882;DHT22;27562;47.524;12.404;2022-07-23T14:21:21;27.40;69.40
41882;DHT22;27562;47.524;12.404;2022-07-23T14:23:47;27.50;69.40
41882;DHT22;27562;47.524;12.404;2022-07-23T14:26:12;27.40;70.80
41882;DHT22;27562;47.524;12.404;2022-07-23T14:28:38;27.50;70.20
41882;DHT22;27562;47.524;12.404;2022-07-23T14:31:03;27.60;71.00
41882;DHT22;27562;47.524;12.404;2022-07-23T14:33:29;27.50;70.60
41882;DHT22;27562;47.524;12.404;2022-07-23T14:35:54;27.50;70.30
41882;DHT22;27562;47.524;12.404;2022-07-23T14:38:20;27.50;70.00
41882;DHT22;27562;47.524;12.404;2022-07-23T14:40:45;27.60;73.30
41882;DHT22;27562;47.524;12.404;2022-07-23T14:43:11;27.70;67.60
41882;DHT22;27562;47.524;12.404;2022-07-23T14:45:36;27.60;67.50
41882;DHT22;27562;47.524;12.404;2022-07-23T14:48:02;27.40;68.90
41882;DHT22;27562;47.524;12.404;2022-07-23T14:50:28;27.30;68.00
41882;DHT22;27562;47.524;12.404;2022-07-23T14:52:54;27.20;70.70
41882;DHT22;27562;47.524;12.404;2022-07-23T14:55:19;27.20;69.60
41882;DHT22;27562;47.524;12.404;2022-07-23T14:57:45;27.20;69.80
41882;DHT22;27562;47.524;12.404;2022-07-23T15:00:11;27.20;69.50
41882;DHT22;27562;47.524;12.404;2022-07-23T15:02:37;27.10;69.40
41882;DHT22;27562;47.524;12.404;2022-07-23T15:05:03;27.00;68.10
41882;DHT22;27562;47.524;12.404;2022-07-23T15:07:29;26.80;68.10
41882;DHT22;27562;47.524;12.404;2022-07-23T15:09:56;26.60;70.50
41882;DHT22;27562;47.524;12.404;2022-07-23T15:12:21;26.50;69.90
41882;DHT22;27562;47.524;12.404;2022-07-23T15:14:47;26.40;68.90
41882;DHT22;27562;47.524;12.404;2022-07-23T15:17:13;26.20;70.20
41882;DHT22;27562;47.524;12.404;2022-07-23T15:19:38;26.10;69.70
41882;DHT22;27562;47.524;12.404;2022-07-23T15:22:04;26.00;70.20
41882;DHT22;27562;47.524;12.404;2022-07-23T15:24:30;25.90;71.70
41882;DHT22;27562;47.524;12.404;2022-07-23T15:26:56;25.80;70.30
41882;DHT22;27562;47.524;12.404;2022-07-23T15:29:22;25.80;70.00
41882;DHT22;27562;47.524;12.404;2022-07-23T15:31:48;25.70;70.30
41882;DHT22;27562;47.524;12.404;2022-07-23T15:34:13;25.70;70.00
41882;DHT22;27562;47.524;12.404;2022-07-23T15:36:39;25.50;70.30
41882;DHT22;27562;47.524;12.404;2022-07-23T15:39:05;25.50;71.30
41882;DHT22;27562;47.524;12.404;2022-07-23T15:41:31;25.50;70.90
41882;DHT22;27562;47.524;12.404;2022-07-23T15:43:57;25.40;73.80
41882;DHT22;27562;47.524;12.404;2022-07-23T15:46:22;25.20;73.70
41882;DHT22;27562;47.524;12.404;2022-07-23T15:48:48;25.20;75.10
41882;DHT22;27562;47.524;12.404;2022-07-23T15:51:14;25.10;76.50
41882;DHT22;27562;47.524;12.404;2022-07-23T15:53:41;25.00;80.30
41882;DHT22;27562;47.524;12.404;2022-07-23T15:56:06;24.90;85.40
41882;DHT22;27562;47.524;12.404;2022-07-23T15:58:32;24.70;88.70
41882;DHT22;27562;47.524;12.404;2022-07-23T16:00:58;24.50;90.90
41882;DHT22;27562;47.524;12.404;2022-07-23T16:03:24;24.30;91.30
41882;DHT22;27562;47.524;12.404;2022-07-23T16:05:50;24.20;93.00